KYNG/YNG METAR and TAF weather

Enter ICAO airport designator
Station Type Date Time Source
KYNG METAR 2024/02/26 16:51 UTC NOAA

KYNG 261651Z 17006KT 10SM FEW120 BKN250 13/01 A2994 RMK AO2 SLP142 T01330011


Station Type Date Time Source
KYNG Decoded METAR 2024/02/26 16:51 UTC NOAA

YOUNGSTOWN-WARREN REG AIRPRT, OH, United States (KYNG) 41-15N 080-40W 360M
Feb 26, 2024 - 11:51 AM EST / 2024.02.26 1651 UTC
Wind: from the S (170 degrees) at 7 MPH (6 KT):0
Visibility: 10 mile(s):0
Sky conditions: mostly cloudy
Temperature: 55.9 F (13.3 C)
Dew Point: 34.0 F (1.1 C)
Relative Humidity: 43%
Pressure (altimeter): 29.94 in. Hg (1013 hPa)
ob: KYNG 261651Z 17006KT 10SM FEW120 BKN250 13/01 A2994 RMK AO2 SLP142 T01330011
cycle: 17

Station Type Date Time Source
KYNG TAF 2024/02/26 18:22 UTC NOAA